Time;durP1;ratioP1;P1;durP2;ratioP2;P2;SDS_P1;SDS_P2;PMS_P1;PMS_P2;Temp;Humidity;BMP_temperature;BMP_pressure;BME280_temperature;BME280_humidity;BME280_pressure;Samples;Min_cycle;Max_cycle;Signal;HPM_P1;HPM_P2
2019/08/14 13:48:11;;;;;;;5.1;2.1;;;;;;;24.94;37.9834;1004.615;;;;
2019/08/14 13:51:39;;;;;;;2;1;;;;;;;24.78;38.70215;1004.604;;;;
2019/08/14 13:54:05;;;;;;;1.6;1;;;;;;;24.72;37.95313;1004.62;;;;
2019/08/14 13:56:30;;;;;;;1.8;0.9;;;;;;;24.75;37.11523;1004.58;;;;
2019/08/14 14:00:10;;;;;;;4.6;1.1;;;;;;;24.79;36.98926;1004.591;;;;
2019/08/14 14:02:35;;;;;;;1.3;0.9;;;;;;;24.09;38.17188;1004.571;;;;
2019/08/14 14:05:00;;;;;;;1.5;1;;;;;;;24.57;38.47168;1004.512;;;;
2019/08/14 14:07:25;;;;;;;1.1;0.9;;;;;;;25.03;37.25684;1004.526;;;;
2019/08/14 14:09:50;;;;;;;1.9;1;;;;;;;24.82;37.22754;1004.475;;;;
2019/08/14 14:12:15;;;;;;;3.4;1;;;;;;;24.69;36.88574;1004.484;;;;
2019/08/14 14:14:41;;;;;;;2.3;1.2;;;;;;;24.77;37.66113;1004.412;;;;
2019/08/14 14:17:06;;;;;;;2.1;1.1;;;;;;;24.66;37.91211;1004.351;;;;
2019/08/14 14:19:31;;;;;;;2.6;1.1;;;;;;;24.7;37.8916;1004.322;;;;
2019/08/14 14:21:56;;;;;;;1.5;1.1;;;;;;;24.68;38.48145;1004.317;;;;
2019/08/14 14:24:21;;;;;;;2.5;1;;;;;;;24.47;39.46777;1004.322;;;;
2019/08/14 14:26:46;;;;;;;1.9;1.2;;;;;;;24.7;37.09961;1004.32;;;;
2019/08/14 14:29:11;;;;;;;1.8;0.9;;;;;;;24.4;37.83105;1004.301;;;;
2019/08/14 14:31:36;;;;;;;5.3;1.3;;;;;;;24.78;37.63867;1004.281;;;;
2019/08/14 14:34:01;;;;;;;1.7;1.2;;;;;;;24.64;37.86328;1004.24;;;;
2019/08/14 14:36:26;;;;;;;4.1;1.5;;;;;;;24.4;37.98535;1004.259;;;;
2019/08/14 14:38:52;;;;;;;3.8;1.2;;;;;;;24.39;38.64551;1004.187;;;;
2019/08/14 14:41:17;;;;;;;1.5;1.1;;;;;;;24.44;38.8623;1004.154;;;;
2019/08/14 14:43:42;;;;;;;1.9;1.1;;;;;;;24.63;39.9082;1004.13;;;;
2019/08/14 14:46:07;;;;;;;2.4;1.2;;;;;;;24.74;40.09473;1004.139;;;;
2019/08/14 14:48:32;;;;;;;2;1;;;;;;;24.53;39.41504;1004.094;;;;
2019/08/14 14:50:57;;;;;;;1.7;1.2;;;;;;;24.44;39.44141;1004.155;;;;
2019/08/14 14:53:22;;;;;;;1.3;1;;;;;;;23.99;38.4209;1004.172;;;;
2019/08/14 14:55:47;;;;;;;2;1.1;;;;;;;23.93;38.59375;1004.115;;;;
2019/08/14 14:58:12;;;;;;;2.9;1.1;;;;;;;24.18;38.85156;1004.098;;;;
2019/08/14 15:00:37;;;;;;;2.9;1.3;;;;;;;23.83;39.49414;1004.072;;;;
2019/08/14 15:03:03;;;;;;;2.1;1.2;;;;;;;23.76;39.87598;1004.019;;;;
2019/08/14 15:05:28;;;;;;;1.9;1;;;;;;;24.07;40.01074;1003.996;;;;
2019/08/14 15:07:53;;;;;;;3;1.2;;;;;;;24.24;40.27344;1003.958;;;;
2019/08/14 15:10:18;;;;;;;1.9;1.1;;;;;;;23.94;40.57813;1003.969;;;;
2019/08/14 15:12:43;;;;;;;3;1.1;;;;;;;24.1;40.06055;1003.939;;;;
2019/08/14 15:15:08;;;;;;;1.9;1.2;;;;;;;23.74;40.74805;1003.946;;;;
2019/08/14 15:17:34;;;;;;;1.9;1.3;;;;;;;23.71;41.16992;1003.898;;;;
2019/08/14 15:19:59;;;;;;;2.6;1.4;;;;;;;23.89;41.11621;1003.883;;;;
2019/08/14 15:22:24;;;;;;;2.7;1.3;;;;;;;24.11;40.03809;1003.877;;;;
2019/08/14 15:24:49;;;;;;;2.5;1.1;;;;;;;24.05;40.12695;1003.86;;;;
2019/08/14 15:27:14;;;;;;;3.5;1.4;;;;;;;24.05;41.10742;1003.867;;;;
2019/08/14 15:29:39;;;;;;;2.2;1.4;;;;;;;23.98;40.49902;1003.87;;;;
2019/08/14 15:32:13;;;;;;;2.2;1.2;;;;;;;24.18;39.87891;1003.844;;;;
2019/08/14 15:34:29;;;;;;;2;1.2;;;;;;;23.66;40.35156;1003.862;;;;
2019/08/14 15:36:54;;;;;;;3;1.3;;;;;;;23.65;40.77539;1003.83;;;;
2019/08/14 15:39:19;;;;;;;3.5;1.3;;;;;;;23.87;40.31055;1003.882;;;;
2019/08/14 15:41:45;;;;;;;4.2;1.4;;;;;;;23.87;40.21777;1003.84;;;;
2019/08/14 15:44:10;;;;;;;2.1;1.3;;;;;;;23.82;40.82617;1003.838;;;;
2019/08/14 15:46:35;;;;;;;5.4;2.9;;;;;;;23.76;40.85547;1003.825;;;;
2019/08/14 15:49:00;;;;;;;2.4;1.4;;;;;;;23.43;41.20313;1003.749;;;;
2019/08/14 15:51:25;;;;;;;5.6;2.4;;;;;;;23.6;41.54883;1003.715;;;;
2019/08/14 15:53:50;;;;;;;5.4;1.5;;;;;;;23.56;41.19141;1003.709;;;;
2019/08/14 15:56:15;;;;;;;2.3;1.5;;;;;;;23.54;41.7207;1003.664;;;;
2019/08/14 15:58:40;;;;;;;3.4;1.8;;;;;;;23.64;41.87109;1003.643;;;;
2019/08/14 16:01:05;;;;;;;3.9;1.5;;;;;;;23.8;41.25977;1003.598;;;;
2019/08/14 16:03:30;;;;;;;3.6;1.7;;;;;;;23.76;42;1003.587;;;;
2019/08/14 16:05:55;;;;;;;2.4;1.4;;;;;;;23.8;41.16699;1003.546;;;;
2019/08/14 16:08:20;;;;;;;2.7;1.3;;;;;;;23.75;41.20898;1003.539;;;;
2019/08/14 16:10:46;;;;;;;2.8;1.5;;;;;;;23.75;41.43262;1003.518;;;;
2019/08/14 16:13:11;;;;;;;4.1;1.4;;;;;;;23.77;41.0332;1003.518;;;;
2019/08/14 16:15:36;;;;;;;3.3;1.8;;;;;;;23.8;40.70605;1003.524;;;;
2019/08/14 16:18:02;;;;;;;2.1;1.5;;;;;;;23.57;41.4873;1003.57;;;;
2019/08/14 16:20:27;;;;;;;2.9;1.6;;;;;;;23.59;41.19336;1003.518;;;;
2019/08/14 16:22:52;;;;;;;2.9;1.6;;;;;;;23.57;41.40332;1003.501;;;;
2019/08/14 16:25:17;;;;;;;5.8;2.7;;;;;;;23.54;42.55762;1003.45;;;;
2019/08/14 16:27:42;;;;;;;4.2;1.6;;;;;;;23.58;41.88867;1003.471;;;;
2019/08/14 16:30:07;;;;;;;4.5;1.6;;;;;;;23.57;41.63965;1003.487;;;;
2019/08/14 16:32:32;;;;;;;6.4;1.8;;;;;;;23.42;40.64844;1003.453;;;;
2019/08/14 16:34:57;;;;;;;1.6;1.2;;;;;;;23.3;41.22559;1003.416;;;;
2019/08/14 16:37:22;;;;;;;1.7;1.4;;;;;;;23.32;41.08691;1003.33;;;;
2019/08/14 16:39:47;;;;;;;2.2;1.2;;;;;;;23.39;41.43457;1003.358;;;;
2019/08/14 16:42:12;;;;;;;2.5;1.3;;;;;;;23.42;40.90723;1003.319;;;;
2019/08/14 16:44:38;;;;;;;1.9;1.3;;;;;;;23.4;41.30664;1003.334;;;;
2019/08/14 16:47:03;;;;;;;2.9;1.3;;;;;;;23.36;40.6543;1003.284;;;;
2019/08/14 16:49:28;;;;;;;2.5;1.5;;;;;;;23.19;40.96875;1003.24;;;;
2019/08/14 16:51:53;;;;;;;2.4;1.2;;;;;;;23.25;40.86816;1003.254;;;;
2019/08/14 16:54:18;;;;;;;3.9;1.4;;;;;;;23.18;40.83789;1003.26;;;;
2019/08/14 16:56:43;;;;;;;1.9;1.2;;;;;;;23.15;41.91992;1003.262;;;;
2019/08/14 16:59:08;;;;;;;2;1.4;;;;;;;23.28;41.3418;1003.255;;;;
2019/08/14 17:01:33;;;;;;;3;1.5;;;;;;;23.1;41.99707;1003.223;;;;
2019/08/14 17:03:58;;;;;;;2.2;1.4;;;;;;;23.13;42.22461;1003.249;;;;
2019/08/14 17:06:24;;;;;;;4.5;1.6;;;;;;;23.07;42.66602;1003.257;;;;
2019/08/14 17:08:54;;;;;;;2.7;1.4;;;;;;;23.05;42.83984;1003.278;;;;
2019/08/14 17:11:14;;;;;;;3.7;1.5;;;;;;;23.01;42.9541;1003.259;;;;
2019/08/14 17:13:39;;;;;;;3.2;1.3;;;;;;;22.93;43.26465;1003.227;;;;
2019/08/14 17:16:04;;;;;;;3.1;1.3;;;;;;;22.98;43.7041;1003.23;;;;
2019/08/14 17:18:29;;;;;;;3;1.8;;;;;;;23.03;42.87402;1003.215;;;;
2019/08/14 17:20:54;;;;;;;3.1;1.6;;;;;;;22.9;42.93164;1003.217;;;;
2019/08/14 17:23:19;;;;;;;3.6;1.7;;;;;;;22.81;43.95898;1003.186;;;;
2019/08/14 17:25:44;;;;;;;2.4;1.2;;;;;;;22.86;43.75195;1003.197;;;;
2019/08/14 17:28:09;;;;;;;3.7;1.4;;;;;;;22.88;43.73047;1003.157;;;;
2019/08/14 17:30:34;;;;;;;2.6;1.4;;;;;;;22.82;44.7373;1003.172;;;;
2019/08/14 17:32:59;;;;;;;5.6;1.5;;;;;;;22.72;45.11621;1003.187;;;;
2019/08/14 17:35:24;;;;;;;3.8;1.4;;;;;;;22.63;43.88281;1003.146;;;;
2019/08/14 17:37:50;;;;;;;2.2;1.4;;;;;;;22.58;44.21973;1003.124;;;;
2019/08/14 17:40:15;;;;;;;4.3;1.6;;;;;;;22.67;43.69824;1003.105;;;;
2019/08/14 17:42:40;;;;;;;2.1;1.4;;;;;;;22.51;44.1416;1003.047;;;;
2019/08/14 17:45:05;;;;;;;3.5;1.5;;;;;;;22.51;44.44727;1003.073;;;;
2019/08/14 17:47:30;;;;;;;2.3;1.5;;;;;;;22.4;44.61328;1003.072;;;;
2019/08/14 17:49:55;;;;;;;2.6;1.5;;;;;;;22.4;44.91895;1003.096;;;;
2019/08/14 17:52:20;;;;;;;2.7;1.4;;;;;;;22.32;45.14551;1003.082;;;;
2019/08/14 17:54:45;;;;;;;3.1;1.4;;;;;;;22.39;45.36426;1003.022;;;;
2019/08/14 17:57:10;;;;;;;2.4;1.5;;;;;;;22.3;45.89648;1003.021;;;;
2019/08/14 17:59:36;;;;;;;3.3;1.5;;;;;;;22.31;45.66211;1003.046;;;;
2019/08/14 18:02:01;;;;;;;5.2;1.7;;;;;;;22.23;46.34668;1003.043;;;;
2019/08/14 18:04:26;;;;;;;2.8;1.6;;;;;;;22.14;47.11328;1003.051;;;;
2019/08/14 18:06:51;;;;;;;2.3;1.5;;;;;;;21.99;46.75781;1003.069;;;;
2019/08/14 18:09:17;;;;;;;3.4;1.7;;;;;;;21.88;46.88672;1002.974;;;;
2019/08/14 18:11:42;;;;;;;2.6;1.7;;;;;;;21.7;47.16113;1003.004;;;;
2019/08/14 18:14:07;;;;;;;4.1;1.5;;;;;;;21.65;47.49707;1003.017;;;;
2019/08/14 18:16:33;;;;;;;3;1.5;;;;;;;21.66;47.7207;1002.999;;;;
2019/08/14 18:18:58;;;;;;;2.8;1.5;;;;;;;21.61;47.63281;1002.978;;;;
2019/08/14 18:21:23;;;;;;;3.6;1.7;;;;;;;21.52;47.70605;1002.982;;;;
2019/08/14 18:23:48;;;;;;;4;1.7;;;;;;;21.46;47.66406;1002.915;;;;
2019/08/14 18:26:13;;;;;;;3;1.5;;;;;;;21.38;47.88965;1002.912;;;;
2019/08/14 18:28:38;;;;;;;5.3;2;;;;;;;21.33;48.21387;1002.88;;;;
2019/08/14 18:31:04;;;;;;;2.3;1.8;;;;;;;21.31;47.89355;1002.85;;;;
2019/08/14 18:33:28;;;;;;;3.6;1.8;;;;;;;21.22;48.59961;1002.831;;;;
2019/08/14 18:35:54;;;;;;;4.1;2.1;;;;;;;21.12;49.09375;1002.863;;;;
2019/08/14 18:38:19;;;;;;;2.9;1.7;;;;;;;21.04;49.03809;1002.893;;;;
2019/08/14 18:40:44;;;;;;;3.3;1.8;;;;;;;21.08;48.25586;1002.837;;;;
2019/08/14 18:43:09;;;;;;;4.7;2.2;;;;;;;20.99;49.36035;1002.842;;;;
2019/08/14 18:45:34;;;;;;;5.2;3;;;;;;;20.9;50.39355;1002.838;;;;
2019/08/14 18:47:59;;;;;;;3.8;2.9;;;;;;;20.77;50.71875;1002.857;;;;
2019/08/14 18:50:24;;;;;;;3.1;2.1;;;;;;;20.72;49.98633;1002.861;;;;
2019/08/14 18:52:50;;;;;;;4.1;1.7;;;;;;;20.73;50.06934;1002.874;;;;
2019/08/14 18:55:15;;;;;;;4.7;1.8;;;;;;;20.76;50.42383;1002.842;;;;
2019/08/14 18:57:40;;;;;;;3.9;1.6;;;;;;;20.73;50.64355;1002.839;;;;
2019/08/14 19:00:05;;;;;;;2.9;1.7;;;;;;;20.72;50.75879;1002.838;;;;
2019/08/14 19:02:30;;;;;;;8;2;;;;;;;20.65;51.8291;1002.817;;;;
2019/08/14 19:04:56;;;;;;;3.4;2.6;;;;;;;20.52;53.28906;1002.842;;;;
2019/08/14 19:07:21;;;;;;;4.3;2.4;;;;;;;20.37;54.79395;1002.818;;;;
2019/08/14 19:09:46;;;;;;;3.6;2.2;;;;;;;20.26;54.89746;1002.808;;;;
2019/08/14 19:12:11;;;;;;;4.6;2.3;;;;;;;20.15;55.04688;1002.808;;;;
2019/08/14 19:14:36;;;;;;;6.4;3.1;;;;;;;20.02;55.75684;1002.763;;;;
2019/08/14 19:17:01;;;;;;;5.9;3.2;;;;;;;19.86;56.85938;1002.819;;;;
2019/08/14 19:19:26;;;;;;;3.6;1.9;;;;;;;19.79;54.82715;1002.897;;;;
2019/08/14 19:21:51;;;;;;;4.9;2;;;;;;;19.89;54.92188;1002.908;;;;
2019/08/14 19:24:17;;;;;;;6.1;1.9;;;;;;;19.92;55.46387;1002.966;;;;
2019/08/14 19:26:42;;;;;;;3.4;1.8;;;;;;;19.89;55.6709;1002.916;;;;
2019/08/14 19:29:07;;;;;;;4;2;;;;;;;19.87;55.46973;1002.878;;;;
2019/08/14 19:31:32;;;;;;;4.5;2.5;;;;;;;19.82;57.55566;1002.885;;;;
2019/08/14 19:33:57;;;;;;;6.1;2.7;;;;;;;19.71;58.78125;1002.909;;;;
2019/08/14 19:36:22;;;;;;;4.8;2.5;;;;;;;19.58;59.27734;1002.909;;;;
2019/08/14 19:38:47;;;;;;;3.7;2.6;;;;;;;19.42;59.46582;1002.957;;;;
2019/08/14 19:41:12;;;;;;;5.6;2.8;;;;;;;19.28;59.70508;1002.914;;;;
2019/08/14 19:43:38;;;;;;;6.2;3.5;;;;;;;19.18;60.80078;1002.894;;;;
2019/08/14 19:46:03;;;;;;;4.7;2.7;;;;;;;19.09;61.29004;1002.865;;;;
2019/08/14 19:48:28;;;;;;;6.4;3;;;;;;;19.03;61.66504;1002.88;;;;
2019/08/14 19:50:53;;;;;;;6.1;3.1;;;;;;;18.92;62.24707;1002.925;;;;
2019/08/14 19:53:18;;;;;;;5.3;3;;;;;;;18.88;62.78906;1002.974;;;;
2019/08/14 19:55:43;;;;;;;5;2.3;;;;;;;18.95;60.16309;1002.934;;;;
2019/08/14 19:58:08;;;;;;;5.8;2.6;;;;;;;18.92;60.29785;1002.949;;;;
2019/08/14 20:00:34;;;;;;;8.2;3;;;;;;;19;61.62793;1002.93;;;;
2019/08/14 20:02:59;;;;;;;4.9;3;;;;;;;18.94;61.89941;1002.973;;;;
2019/08/14 20:05:24;;;;;;;6.2;3.3;;;;;;;18.9;62.10254;1002.968;;;;
2019/08/14 20:07:49;;;;;;;7.3;4.4;;;;;;;18.85;62.3418;1002.963;;;;
2019/08/14 20:10:15;;;;;;;5.6;2.5;;;;;;;18.9;61.06445;1002.931;;;;
2019/08/14 20:12:40;;;;;;;4.7;2.5;;;;;;;18.92;60.84668;1002.944;;;;
2019/08/14 20:15:05;;;;;;;16.1;8.3;;;;;;;18.92;62.46875;1002.93;;;;
2019/08/14 20:17:30;;;;;;;6.1;2.9;;;;;;;18.85;61.46484;1002.896;;;;
2019/08/14 20:19:55;;;;;;;8;3.4;;;;;;;18.74;62.5127;1002.857;;;;
2019/08/14 20:22:20;;;;;;;6.2;2.9;;;;;;;18.71;62.21777;1002.81;;;;
2019/08/14 20:24:45;;;;;;;8.5;4.5;;;;;;;18.58;63.64453;1002.856;;;;
2019/08/14 20:27:11;;;;;;;3.8;2;;;;;;;18.58;62.38574;1002.82;;;;
2019/08/14 20:29:36;;;;;;;5.2;2.2;;;;;;;18.69;61.96875;1002.825;;;;
2019/08/14 20:32:01;;;;;;;3.8;2.1;;;;;;;18.67;62.07129;1002.829;;;;
2019/08/14 20:34:26;;;;;;;2.4;1.9;;;;;;;18.7;61.9248;1002.823;;;;
2019/08/14 20:36:51;;;;;;;4.5;1.9;;;;;;;18.73;61.79883;1002.824;;;;
2019/08/14 20:39:16;;;;;;;5.7;1.9;;;;;;;18.74;61.47461;1002.773;;;;
2019/08/14 20:41:41;;;;;;;3.5;1.9;;;;;;;18.73;61.4502;1002.741;;;;
2019/08/14 20:44:06;;;;;;;2;1.7;;;;;;;18.75;61.05566;1002.693;;;;
2019/08/14 20:46:31;;;;;;;3.4;1.9;;;;;;;18.71;61.16797;1002.701;;;;
2019/08/14 20:48:56;;;;;;;3;1.8;;;;;;;18.73;61.16992;1002.774;;;;
2019/08/14 20:51:22;;;;;;;3;1.9;;;;;;;18.71;61.16797;1002.775;;;;
2019/08/14 20:53:47;;;;;;;2.4;1.9;;;;;;;18.68;62.35254;1002.816;;;;
2019/08/14 20:56:12;;;;;;;3.6;2.2;;;;;;;18.56;63.59473;1002.805;;;;
2019/08/14 20:58:37;;;;;;;4.8;2.2;;;;;;;18.35;64.77734;1002.769;;;;
2019/08/14 21:01:03;;;;;;;3.8;2.3;;;;;;;18.2;66.37402;1002.728;;;;
2019/08/14 21:03:28;;;;;;;3.7;2.3;;;;;;;18.06;65.77148;1002.688;;;;
2019/08/14 21:05:53;;;;;;;4.9;2.3;;;;;;;18.06;65.45703;1002.733;;;;
2019/08/14 21:08:18;;;;;;;4;2.1;;;;;;;18.06;65.61816;1002.699;;;;
2019/08/14 21:10:43;;;;;;;3.2;2.1;;;;;;;18.1;65.27637;1002.604;;;;
2019/08/14 21:13:08;;;;;;;4.8;2.1;;;;;;;17.98;65.71094;1002.582;;;;
2019/08/14 21:15:33;;;;;;;4.2;2.1;;;;;;;18;66.06348;1002.538;;;;
2019/08/14 21:17:59;;;;;;;4.3;2;;;;;;;17.97;64.7666;1002.518;;;;
2019/08/14 21:20:24;;;;;;;4;1.8;;;;;;;17.97;63.69531;1002.479;;;;
2019/08/14 21:22:49;;;;;;;3.9;1.6;;;;;;;18.07;63.05859;1002.48;;;;
2019/08/14 21:25:14;;;;;;;4.3;1.8;;;;;;;18.21;62.35547;1002.504;;;;
2019/08/14 21:27:39;;;;;;;2.7;1.6;;;;;;;18.25;61.88281;1002.515;;;;
2019/08/14 21:30:04;;;;;;;3;1.7;;;;;;;18.34;61.25488;1002.514;;;;
2019/08/14 21:32:29;;;;;;;2.1;1.4;;;;;;;18.37;60.88672;1002.514;;;;
2019/08/14 21:34:55;;;;;;;2.5;1.5;;;;;;;18.35;61.1875;1002.457;;;;
2019/08/14 21:37:20;;;;;;;5.6;1.7;;;;;;;18.29;61.54004;1002.434;;;;
2019/08/14 21:39:45;;;;;;;2.8;1.5;;;;;;;18.26;61.66309;1002.465;;;;
2019/08/14 21:42:10;;;;;;;2.9;1.4;;;;;;;18.24;62.02148;1002.477;;;;
2019/08/14 21:44:35;;;;;;;2.7;1.6;;;;;;;18.24;61.87012;1002.448;;;;
2019/08/14 21:47:00;;;;;;;5.7;1.7;;;;;;;18.22;61.99707;1002.388;;;;
2019/08/14 21:49:26;;;;;;;2.1;1.6;;;;;;;18.16;62.24512;1002.353;;;;
2019/08/14 21:51:51;;;;;;;2.9;1.5;;;;;;;18.09;62.44434;1002.381;;;;
2019/08/14 21:54:16;;;;;;;3.3;1.7;;;;;;;18.13;61.71582;1002.328;;;;
2019/08/14 21:56:41;;;;;;;2.2;1.7;;;;;;;18.22;61.18164;1002.314;;;;
2019/08/14 21:59:07;;;;;;;2.3;1.4;;;;;;;18.23;61.01855;1002.224;;;;
2019/08/14 22:01:33;;;;;;;3.6;1.4;;;;;;;18.25;60.77637;1002.289;;;;
2019/08/14 22:03:57;;;;;;;2;1.5;;;;;;;18.21;60.86621;1002.303;;;;
2019/08/14 22:06:22;;;;;;;2.6;1.5;;;;;;;18.21;60.80664;1002.311;;;;
2019/08/14 22:08:47;;;;;;;3.4;1.6;;;;;;;18.21;60.65527;1002.298;;;;
2019/08/14 22:11:12;;;;;;;1.7;1.3;;;;;;;18.18;60.96582;1002.272;;;;
2019/08/14 22:13:38;;;;;;;2;1.5;;;;;;;18.16;60.92676;1002.3;;;;
2019/08/14 22:16:03;;;;;;;4;1.4;;;;;;;18.1;61.47754;1002.347;;;;
2019/08/14 22:18:28;;;;;;;3.6;1.4;;;;;;;18.04;61.55176;1002.319;;;;
2019/08/14 22:20:53;;;;;;;2.8;1.5;;;;;;;18.05;61.72754;1002.282;;;;
2019/08/14 22:23:18;;;;;;;2.9;1.5;;;;;;;17.99;61.96387;1002.203;;;;
2019/08/14 22:25:43;;;;;;;2;1.5;;;;;;;17.96;61.68066;1002.246;;;;
2019/08/14 22:28:08;;;;;;;2.2;1.4;;;;;;;17.95;61.83008;1002.213;;;;
2019/08/14 22:30:34;;;;;;;2.3;1.7;;;;;;;17.91;63.15234;1002.163;;;;
2019/08/14 22:32:59;;;;;;;2.7;1.5;;;;;;;17.88;62.25;1002.171;;;;
2019/08/14 22:35:24;;;;;;;1.5;1.4;;;;;;;17.85;62.57227;1002.15;;;;
2019/08/14 22:37:49;;;;;;;3.6;1.5;;;;;;;17.82;62.16016;1002.083;;;;
2019/08/14 22:40:15;;;;;;;2;1.3;;;;;;;17.88;61.92578;1002.131;;;;
2019/08/14 22:42:40;;;;;;;2;1.4;;;;;;;17.9;61.2998;1002.094;;;;
2019/08/14 22:45:05;;;;;;;2;1.5;;;;;;;17.92;61.39551;1002.135;;;;
2019/08/14 22:47:30;;;;;;;2.4;1.5;;;;;;;17.94;61.25781;1002.085;;;;
2019/08/14 22:49:55;;;;;;;2.7;1.4;;;;;;;17.95;61.3291;1002.158;;;;
2019/08/14 22:52:20;;;;;;;3;1.7;;;;;;;17.95;61.56152;1002.157;;;;
2019/08/14 22:54:46;;;;;;;2.2;1.6;;;;;;;18.03;61.50391;1002.155;;;;
2019/08/14 22:57:11;;;;;;;2.6;1.4;;;;;;;17.99;61.93945;1002.157;;;;
2019/08/14 22:59:36;;;;;;;3.4;1.4;;;;;;;18.03;61.92285;1002.152;;;;
2019/08/14 23:02:01;;;;;;;3.1;1.5;;;;;;;18;62.31445;1002.134;;;;
2019/08/14 23:04:26;;;;;;;4.2;1.5;;;;;;;18.01;62.52539;1002.146;;;;
2019/08/14 23:06:51;;;;;;;2.1;1.5;;;;;;;18.04;61.83203;1002.128;;;;
2019/08/14 23:09:24;;;;;;;2.1;1.4;;;;;;;18.03;62.31836;1002.153;;;;
2019/08/14 23:11:41;;;;;;;3.1;1.6;;;;;;;18.06;62.28711;1002.129;;;;
2019/08/14 23:14:06;;;;;;;3.8;1.6;;;;;;;17.97;61.93848;1002.071;;;;
2019/08/14 23:16:32;;;;;;;3.2;1.5;;;;;;;17.97;62.36816;1002.104;;;;
2019/08/14 23:18:57;;;;;;;4.9;1.5;;;;;;;17.86;64.7168;1002.091;;;;
2019/08/14 23:21:23;;;;;;;2.8;1.6;;;;;;;17.85;62.8291;1002.076;;;;
2019/08/14 23:23:48;;;;;;;1.8;1.5;;;;;;;17.83;63.97949;1002.03;;;;
2019/08/14 23:26:13;;;;;;;2.8;1.4;;;;;;;17.92;63.44336;1002.056;;;;
2019/08/14 23:28:38;;;;;;;3.1;1.4;;;;;;;17.98;63.30176;1002.035;;;;
2019/08/14 23:31:03;;;;;;;3.3;1.5;;;;;;;17.98;64.45508;1001.995;;;;
2019/08/14 23:33:28;;;;;;;2.1;1.4;;;;;;;17.86;62.30566;1001.965;;;;
2019/08/14 23:35:53;;;;;;;2.8;1.8;;;;;;;17.78;65.07617;1001.937;;;;
2019/08/14 23:38:18;;;;;;;2.9;1.7;;;;;;;17.64;67.3252;1001.915;;;;
2019/08/14 23:40:44;;;;;;;3.3;1.5;;;;;;;17.54;66.44922;1001.882;;;;
2019/08/14 23:43:09;;;;;;;3.2;1.9;;;;;;;17.53;67.92578;1001.842;;;;
2019/08/14 23:45:34;;;;;;;3.1;1.5;;;;;;;17.38;65.77344;1001.83;;;;
2019/08/14 23:48:07;;;;;;;2.1;1.4;;;;;;;17.2;66.5957;1001.778;;;;
2019/08/14 23:50:26;;;;;;;3.3;1.6;;;;;;;17.19;65.78027;1001.714;;;;
2019/08/14 23:52:51;;;;;;;2.3;1.5;;;;;;;17.34;64.74414;1001.725;;;;
2019/08/14 23:55:16;;;;;;;3.7;1.7;;;;;;;17.33;65.20703;1001.667;;;;
2019/08/14 23:57:42;;;;;;;2.4;1.4;;;;;;;17.27;65.51172;1001.701;;;;
